sensor_id;sensor_type;location;lat;lon;timestamp;P1;durP1;ratioP1;P2;durP2;ratioP2
30519;SDS011;17300;50.374;8.006;2023-12-29T00:02:04;0.40;;;0.40;;
30519;SDS011;17300;50.374;8.006;2023-12-29T00:04:31;0.50;;;0.50;;
30519;SDS011;17300;50.374;8.006;2023-12-29T00:06:59;0.63;;;0.50;;
30519;SDS011;17300;50.374;8.006;2023-12-29T00:09:27;0.80;;;0.60;;
30519;SDS011;17300;50.374;8.006;2023-12-29T00:11:54;0.60;;;0.60;;
30519;SDS011;17300;50.374;8.006;2023-12-29T00:14:20;0.60;;;0.60;;
30519;SDS011;17300;50.374;8.006;2023-12-29T00:16:47;0.50;;;0.50;;
30519;SDS011;17300;50.374;8.006;2023-12-29T00:19:14;0.50;;;0.50;;
30519;SDS011;17300;50.374;8.006;2023-12-29T00:21:40;0.50;;;0.50;;
30519;SDS011;17300;50.374;8.006;2023-12-29T00:24:08;0.53;;;0.53;;
30519;SDS011;17300;50.374;8.006;2023-12-29T00:26:35;0.67;;;0.67;;
30519;SDS011;17300;50.374;8.006;2023-12-29T00:29:02;0.50;;;0.50;;
30519;SDS011;17300;50.374;8.006;2023-12-29T00:31:30;0.70;;;0.70;;
30519;SDS011;17300;50.374;8.006;2023-12-29T00:33:57;0.60;;;0.60;;
30519;SDS011;17300;50.374;8.006;2023-12-29T00:36:24;0.63;;;0.63;;
30519;SDS011;17300;50.374;8.006;2023-12-29T00:38:50;0.80;;;0.80;;
30519;SDS011;17300;50.374;8.006;2023-12-29T00:41:18;0.80;;;0.73;;
30519;SDS011;17300;50.374;8.006;2023-12-29T00:43:45;1.30;;;0.90;;
30519;SDS011;17300;50.374;8.006;2023-12-29T00:46:13;0.70;;;0.70;;
30519;SDS011;17300;50.374;8.006;2023-12-29T00:48:40;0.87;;;0.83;;
30519;SDS011;17300;50.374;8.006;2023-12-29T00:51:07;0.80;;;0.80;;
30519;SDS011;17300;50.374;8.006;2023-12-29T00:53:34;0.80;;;0.80;;
30519;SDS011;17300;50.374;8.006;2023-12-29T00:56:01;1.03;;;0.77;;
30519;SDS011;17300;50.374;8.006;2023-12-29T00:58:29;0.70;;;0.70;;
30519;SDS011;17300;50.374;8.006;2023-12-29T01:00:56;0.90;;;0.80;;
30519;SDS011;17300;50.374;8.006;2023-12-29T01:03:22;0.63;;;0.63;;
30519;SDS011;17300;50.374;8.006;2023-12-29T01:05:49;0.80;;;0.80;;
30519;SDS011;17300;50.374;8.006;2023-12-29T01:08:15;0.70;;;0.70;;
30519;SDS011;17300;50.374;8.006;2023-12-29T01:10:42;0.77;;;0.77;;
30519;SDS011;17300;50.374;8.006;2023-12-29T01:13:09;1.47;;;0.90;;
30519;SDS011;17300;50.374;8.006;2023-12-29T01:15:37;0.97;;;0.90;;
30519;SDS011;17300;50.374;8.006;2023-12-29T01:18:05;2.20;;;0.90;;
30519;SDS011;17300;50.374;8.006;2023-12-29T01:20:32;3.23;;;0.90;;
30519;SDS011;17300;50.374;8.006;2023-12-29T01:22:59;1.13;;;0.80;;
30519;SDS011;17300;50.374;8.006;2023-12-29T01:25:25;1.27;;;0.90;;
30519;SDS011;17300;50.374;8.006;2023-12-29T01:27:52;1.37;;;0.70;;
30519;SDS011;17300;50.374;8.006;2023-12-29T01:30:18;1.10;;;0.80;;
30519;SDS011;17300;50.374;8.006;2023-12-29T01:32:46;1.23;;;0.90;;
30519;SDS011;17300;50.374;8.006;2023-12-29T01:35:13;0.90;;;0.80;;
30519;SDS011;17300;50.374;8.006;2023-12-29T01:37:40;1.33;;;0.73;;
30519;SDS011;17300;50.374;8.006;2023-12-29T01:40:08;0.90;;;0.70;;
30519;SDS011;17300;50.374;8.006;2023-12-29T01:42:35;1.43;;;0.70;;
30519;SDS011;17300;50.374;8.006;2023-12-29T01:45:02;0.90;;;0.73;;
30519;SDS011;17300;50.374;8.006;2023-12-29T01:47:30;1.17;;;0.77;;
30519;SDS011;17300;50.374;8.006;2023-12-29T01:49:58;0.83;;;0.70;;
30519;SDS011;17300;50.374;8.006;2023-12-29T01:52:25;1.00;;;0.73;;
30519;SDS011;17300;50.374;8.006;2023-12-29T01:54:51;1.03;;;0.80;;
30519;SDS011;17300;50.374;8.006;2023-12-29T01:57:19;1.50;;;0.93;;
30519;SDS011;17300;50.374;8.006;2023-12-29T01:59:46;1.87;;;0.80;;
30519;SDS011;17300;50.374;8.006;2023-12-29T02:02:14;0.93;;;0.70;;
30519;SDS011;17300;50.374;8.006;2023-12-29T02:04:41;1.20;;;0.70;;
30519;SDS011;17300;50.374;8.006;2023-12-29T02:07:09;1.47;;;0.90;;
30519;SDS011;17300;50.374;8.006;2023-12-29T02:09:37;1.57;;;1.07;;
30519;SDS011;17300;50.374;8.006;2023-12-29T02:12:05;1.13;;;0.73;;
30519;SDS011;17300;50.374;8.006;2023-12-29T02:14:32;2.03;;;0.93;;
30519;SDS011;17300;50.374;8.006;2023-12-29T02:17:01;0.90;;;0.90;;
30519;SDS011;17300;50.374;8.006;2023-12-29T02:19:37;1.10;;;0.90;;
30519;SDS011;17300;50.374;8.006;2023-12-29T02:22:05;1.20;;;1.00;;
30519;SDS011;17300;50.374;8.006;2023-12-29T02:24:34;1.43;;;0.63;;
30519;SDS011;17300;50.374;8.006;2023-12-29T02:27:05;1.40;;;0.90;;
30519;SDS011;17300;50.374;8.006;2023-12-29T02:29:38;0.97;;;0.70;;
30519;SDS011;17300;50.374;8.006;2023-12-29T02:32:09;1.47;;;0.63;;
30519;SDS011;17300;50.374;8.006;2023-12-29T02:34:40;1.30;;;0.80;;
30519;SDS011;17300;50.374;8.006;2023-12-29T02:37:07;1.53;;;1.00;;
30519;SDS011;17300;50.374;8.006;2023-12-29T02:39:35;1.17;;;0.77;;
30519;SDS011;17300;50.374;8.006;2023-12-29T02:42:02;0.97;;;0.70;;
30519;SDS011;17300;50.374;8.006;2023-12-29T02:44:31;2.47;;;0.87;;
30519;SDS011;17300;50.374;8.006;2023-12-29T02:46:58;1.13;;;0.70;;
30519;SDS011;17300;50.374;8.006;2023-12-29T02:49:25;1.63;;;0.90;;
30519;SDS011;17300;50.374;8.006;2023-12-29T02:51:52;2.37;;;0.87;;
30519;SDS011;17300;50.374;8.006;2023-12-29T02:54:19;1.87;;;0.83;;
30519;SDS011;17300;50.374;8.006;2023-12-29T02:56:45;1.07;;;0.97;;
30519;SDS011;17300;50.374;8.006;2023-12-29T02:59:13;1.33;;;0.77;;
30519;SDS011;17300;50.374;8.006;2023-12-29T03:01:40;1.33;;;0.80;;
30519;SDS011;17300;50.374;8.006;2023-12-29T03:04:07;1.63;;;1.10;;
30519;SDS011;17300;50.374;8.006;2023-12-29T03:06:33;1.00;;;0.83;;
30519;SDS011;17300;50.374;8.006;2023-12-29T03:09:00;1.90;;;0.80;;
30519;SDS011;17300;50.374;8.006;2023-12-29T03:11:27;1.50;;;0.80;;
30519;SDS011;17300;50.374;8.006;2023-12-29T03:13:53;1.10;;;0.80;;
30519;SDS011;17300;50.374;8.006;2023-12-29T03:16:21;1.27;;;0.90;;
30519;SDS011;17300;50.374;8.006;2023-12-29T03:18:48;1.57;;;0.80;;
30519;SDS011;17300;50.374;8.006;2023-12-29T03:21:15;1.00;;;0.70;;
30519;SDS011;17300;50.374;8.006;2023-12-29T03:23:41;0.90;;;0.70;;
30519;SDS011;17300;50.374;8.006;2023-12-29T03:26:08;0.60;;;0.50;;
30519;SDS011;17300;50.374;8.006;2023-12-29T03:28:35;1.50;;;0.80;;
30519;SDS011;17300;50.374;8.006;2023-12-29T03:31:02;1.87;;;0.90;;
30519;SDS011;17300;50.374;8.006;2023-12-29T03:33:30;1.87;;;0.77;;
30519;SDS011;17300;50.374;8.006;2023-12-29T03:35:56;1.40;;;0.80;;
30519;SDS011;17300;50.374;8.006;2023-12-29T03:38:24;1.03;;;0.80;;
30519;SDS011;17300;50.374;8.006;2023-12-29T03:40:50;1.17;;;0.80;;
30519;SDS011;17300;50.374;8.006;2023-12-29T03:43:17;1.87;;;0.90;;
30519;SDS011;17300;50.374;8.006;2023-12-29T03:45:44;1.20;;;0.77;;
30519;SDS011;17300;50.374;8.006;2023-12-29T03:48:10;3.10;;;0.70;;
30519;SDS011;17300;50.374;8.006;2023-12-29T03:50:38;1.97;;;1.03;;
30519;SDS011;17300;50.374;8.006;2023-12-29T03:53:05;1.97;;;0.97;;
30519;SDS011;17300;50.374;8.006;2023-12-29T03:55:31;1.20;;;0.77;;
30519;SDS011;17300;50.374;8.006;2023-12-29T03:57:58;1.33;;;0.80;;
30519;SDS011;17300;50.374;8.006;2023-12-29T04:00:26;1.50;;;0.80;;
30519;SDS011;17300;50.374;8.006;2023-12-29T04:02:53;2.40;;;0.73;;
30519;SDS011;17300;50.374;8.006;2023-12-29T04:05:20;0.90;;;0.80;;
30519;SDS011;17300;50.374;8.006;2023-12-29T04:07:48;2.30;;;0.90;;
30519;SDS011;17300;50.374;8.006;2023-12-29T04:10:14;1.13;;;0.70;;
30519;SDS011;17300;50.374;8.006;2023-12-29T04:12:41;1.53;;;0.60;;
30519;SDS011;17300;50.374;8.006;2023-12-29T04:15:08;0.87;;;0.77;;
30519;SDS011;17300;50.374;8.006;2023-12-29T04:17:35;1.93;;;1.10;;
30519;SDS011;17300;50.374;8.006;2023-12-29T04:20:02;1.53;;;0.90;;
30519;SDS011;17300;50.374;8.006;2023-12-29T04:22:29;1.30;;;0.93;;
30519;SDS011;17300;50.374;8.006;2023-12-29T04:24:57;1.60;;;1.00;;
30519;SDS011;17300;50.374;8.006;2023-12-29T04:27:24;1.87;;;1.07;;
30519;SDS011;17300;50.374;8.006;2023-12-29T04:29:51;1.27;;;0.90;;
30519;SDS011;17300;50.374;8.006;2023-12-29T04:32:17;1.40;;;0.80;;
30519;SDS011;17300;50.374;8.006;2023-12-29T04:34:44;1.43;;;0.80;;
30519;SDS011;17300;50.374;8.006;2023-12-29T04:37:11;1.57;;;0.90;;
30519;SDS011;17300;50.374;8.006;2023-12-29T04:39:37;1.50;;;0.70;;
30519;SDS011;17300;50.374;8.006;2023-12-29T04:42:05;1.00;;;0.80;;
30519;SDS011;17300;50.374;8.006;2023-12-29T04:44:33;1.83;;;1.00;;
30519;SDS011;17300;50.374;8.006;2023-12-29T04:46:59;1.27;;;0.90;;
30519;SDS011;17300;50.374;8.006;2023-12-29T04:49:26;1.30;;;0.83;;
30519;SDS011;17300;50.374;8.006;2023-12-29T04:51:53;1.30;;;0.70;;
30519;SDS011;17300;50.374;8.006;2023-12-29T04:54:19;1.80;;;0.87;;
30519;SDS011;17300;50.374;8.006;2023-12-29T04:56:46;1.10;;;0.80;;
30519;SDS011;17300;50.374;8.006;2023-12-29T04:59:14;1.70;;;1.10;;
30519;SDS011;17300;50.374;8.006;2023-12-29T05:04:38;0.77;;;0.70;;
30519;SDS011;17300;50.374;8.006;2023-12-29T05:07:04;1.03;;;0.73;;
30519;SDS011;17300;50.374;8.006;2023-12-29T05:09:32;1.23;;;0.70;;
30519;SDS011;17300;50.374;8.006;2023-12-29T05:11:58;2.27;;;1.17;;
30519;SDS011;17300;50.374;8.006;2023-12-29T05:14:26;2.23;;;0.90;;
30519;SDS011;17300;50.374;8.006;2023-12-29T05:16:53;1.17;;;0.60;;
30519;SDS011;17300;50.374;8.006;2023-12-29T05:19:20;1.27;;;0.80;;
30519;SDS011;17300;50.374;8.006;2023-12-29T05:21:47;0.70;;;0.60;;
30519;SDS011;17300;50.374;8.006;2023-12-29T05:24:16;1.67;;;0.93;;
30519;SDS011;17300;50.374;8.006;2023-12-29T05:26:42;1.70;;;0.80;;
30519;SDS011;17300;50.374;8.006;2023-12-29T05:29:09;0.90;;;0.70;;
30519;SDS011;17300;50.374;8.006;2023-12-29T05:31:37;1.60;;;0.70;;
30519;SDS011;17300;50.374;8.006;2023-12-29T05:34:03;1.07;;;0.77;;
30519;SDS011;17300;50.374;8.006;2023-12-29T05:36:29;2.03;;;0.80;;
30519;SDS011;17300;50.374;8.006;2023-12-29T05:38:56;1.67;;;0.80;;
30519;SDS011;17300;50.374;8.006;2023-12-29T05:41:23;1.43;;;0.70;;
30519;SDS011;17300;50.374;8.006;2023-12-29T05:43:49;1.00;;;0.80;;
30519;SDS011;17300;50.374;8.006;2023-12-29T05:46:16;1.97;;;0.90;;
30519;SDS011;17300;50.374;8.006;2023-12-29T05:48:46;1.37;;;0.83;;
30519;SDS011;17300;50.374;8.006;2023-12-29T05:51:13;1.13;;;0.83;;
30519;SDS011;17300;50.374;8.006;2023-12-29T05:53:40;1.30;;;0.70;;
30519;SDS011;17300;50.374;8.006;2023-12-29T05:56:07;1.87;;;0.60;;
30519;SDS011;17300;50.374;8.006;2023-12-29T05:58:34;1.97;;;0.80;;
30519;SDS011;17300;50.374;8.006;2023-12-29T06:01:00;0.93;;;0.73;;
30519;SDS011;17300;50.374;8.006;2023-12-29T06:03:27;1.63;;;0.80;;
30519;SDS011;17300;50.374;8.006;2023-12-29T06:05:56;1.97;;;0.83;;
30519;SDS011;17300;50.374;8.006;2023-12-29T06:08:22;4.00;;;1.33;;
30519;SDS011;17300;50.374;8.006;2023-12-29T06:10:49;1.47;;;0.70;;
30519;SDS011;17300;50.374;8.006;2023-12-29T06:13:16;2.00;;;0.90;;
30519;SDS011;17300;50.374;8.006;2023-12-29T06:15:43;1.60;;;0.70;;
30519;SDS011;17300;50.374;8.006;2023-12-29T06:18:10;1.50;;;0.80;;
30519;SDS011;17300;50.374;8.006;2023-12-29T06:20:36;0.70;;;0.70;;
30519;SDS011;17300;50.374;8.006;2023-12-29T06:23:05;0.83;;;0.73;;
30519;SDS011;17300;50.374;8.006;2023-12-29T06:25:31;2.17;;;0.90;;
30519;SDS011;17300;50.374;8.006;2023-12-29T06:27:59;0.87;;;0.70;;
30519;SDS011;17300;50.374;8.006;2023-12-29T06:30:26;0.80;;;0.60;;
30519;SDS011;17300;50.374;8.006;2023-12-29T06:32:53;1.80;;;0.70;;
30519;SDS011;17300;50.374;8.006;2023-12-29T06:35:19;1.13;;;0.60;;
30519;SDS011;17300;50.374;8.006;2023-12-29T06:37:46;1.13;;;0.80;;
30519;SDS011;17300;50.374;8.006;2023-12-29T06:40:15;1.03;;;0.80;;
30519;SDS011;17300;50.374;8.006;2023-12-29T06:42:43;0.93;;;0.80;;
30519;SDS011;17300;50.374;8.006;2023-12-29T06:45:09;0.60;;;0.60;;
30519;SDS011;17300;50.374;8.006;2023-12-29T06:47:36;1.53;;;0.80;;
30519;SDS011;17300;50.374;8.006;2023-12-29T06:50:03;0.93;;;0.70;;
30519;SDS011;17300;50.374;8.006;2023-12-29T06:52:32;3.80;;;0.90;;
30519;SDS011;17300;50.374;8.006;2023-12-29T06:54:59;2.60;;;0.97;;
30519;SDS011;17300;50.374;8.006;2023-12-29T06:57:28;0.73;;;0.70;;
30519;SDS011;17300;50.374;8.006;2023-12-29T06:59:54;1.03;;;0.63;;
30519;SDS011;17300;50.374;8.006;2023-12-29T07:02:21;1.50;;;0.60;;
30519;SDS011;17300;50.374;8.006;2023-12-29T07:04:48;1.63;;;0.80;;
30519;SDS011;17300;50.374;8.006;2023-12-29T07:07:15;1.10;;;0.70;;
30519;SDS011;17300;50.374;8.006;2023-12-29T07:09:42;0.87;;;0.50;;
30519;SDS011;17300;50.374;8.006;2023-12-29T07:12:09;0.70;;;0.60;;
30519;SDS011;17300;50.374;8.006;2023-12-29T07:14:37;0.60;;;0.60;;
30519;SDS011;17300;50.374;8.006;2023-12-29T07:17:03;1.73;;;0.97;;
30519;SDS011;17300;50.374;8.006;2023-12-29T07:19:30;1.17;;;0.80;;
30519;SDS011;17300;50.374;8.006;2023-12-29T07:22:02;0.60;;;0.50;;
30519;SDS011;17300;50.374;8.006;2023-12-29T07:24:29;0.97;;;0.70;;
30519;SDS011;17300;50.374;8.006;2023-12-29T07:26:56;1.00;;;0.60;;
30519;SDS011;17300;50.374;8.006;2023-12-29T07:29:23;1.30;;;0.70;;
30519;SDS011;17300;50.374;8.006;2023-12-29T07:31:51;1.63;;;0.80;;
30519;SDS011;17300;50.374;8.006;2023-12-29T07:34:18;1.33;;;0.80;;
30519;SDS011;17300;50.374;8.006;2023-12-29T07:36:45;1.23;;;0.60;;
30519;SDS011;17300;50.374;8.006;2023-12-29T07:39:12;1.63;;;0.73;;
30519;SDS011;17300;50.374;8.006;2023-12-29T07:41:39;1.00;;;0.70;;
30519;SDS011;17300;50.374;8.006;2023-12-29T07:44:07;1.43;;;0.63;;
30519;SDS011;17300;50.374;8.006;2023-12-29T07:46:34;1.03;;;0.60;;
30519;SDS011;17300;50.374;8.006;2023-12-29T07:49:02;1.37;;;0.80;;
30519;SDS011;17300;50.374;8.006;2023-12-29T07:51:29;0.70;;;0.70;;
30519;SDS011;17300;50.374;8.006;2023-12-29T07:53:56;1.60;;;0.70;;
30519;SDS011;17300;50.374;8.006;2023-12-29T07:56:23;1.17;;;0.77;;
30519;SDS011;17300;50.374;8.006;2023-12-29T07:58:49;0.87;;;0.50;;
30519;SDS011;17300;50.374;8.006;2023-12-29T08:01:16;0.70;;;0.50;;
30519;SDS011;17300;50.374;8.006;2023-12-29T08:03:43;1.37;;;0.77;;
30519;SDS011;17300;50.374;8.006;2023-12-29T08:06:11;1.00;;;0.70;;
30519;SDS011;17300;50.374;8.006;2023-12-29T08:08:38;1.07;;;0.63;;
30519;SDS011;17300;50.374;8.006;2023-12-29T08:11:05;1.80;;;0.70;;
30519;SDS011;17300;50.374;8.006;2023-12-29T08:13:31;0.90;;;0.60;;
30519;SDS011;17300;50.374;8.006;2023-12-29T08:15:58;1.10;;;0.60;;
30519;SDS011;17300;50.374;8.006;2023-12-29T08:18:25;1.37;;;0.60;;
30519;SDS011;17300;50.374;8.006;2023-12-29T08:20:53;1.07;;;0.70;;
30519;SDS011;17300;50.374;8.006;2023-12-29T08:23:20;0.80;;;0.60;;
30519;SDS011;17300;50.374;8.006;2023-12-29T08:25:47;1.73;;;0.80;;
30519;SDS011;17300;50.374;8.006;2023-12-29T08:28:14;0.83;;;0.60;;
30519;SDS011;17300;50.374;8.006;2023-12-29T08:30:42;0.83;;;0.60;;
30519;SDS011;17300;50.374;8.006;2023-12-29T08:33:11;1.13;;;0.60;;
30519;SDS011;17300;50.374;8.006;2023-12-29T08:35:38;1.20;;;0.63;;
30519;SDS011;17300;50.374;8.006;2023-12-29T08:38:05;0.67;;;0.50;;
30519;SDS011;17300;50.374;8.006;2023-12-29T08:40:33;2.13;;;0.80;;
30519;SDS011;17300;50.374;8.006;2023-12-29T08:43:01;2.20;;;0.80;;
30519;SDS011;17300;50.374;8.006;2023-12-29T08:45:28;0.87;;;0.53;;
30519;SDS011;17300;50.374;8.006;2023-12-29T08:47:54;1.00;;;0.47;;
30519;SDS011;17300;50.374;8.006;2023-12-29T08:50:21;1.20;;;0.50;;
30519;SDS011;17300;50.374;8.006;2023-12-29T08:52:48;0.57;;;0.50;;
30519;SDS011;17300;50.374;8.006;2023-12-29T08:55:14;0.90;;;0.37;;
30519;SDS011;17300;50.374;8.006;2023-12-29T08:57:42;1.87;;;0.50;;
30519;SDS011;17300;50.374;8.006;2023-12-29T09:00:09;0.40;;;0.40;;
30519;SDS011;17300;50.374;8.006;2023-12-29T09:02:36;0.80;;;0.50;;
30519;SDS011;17300;50.374;8.006;2023-12-29T09:05:03;1.10;;;0.63;;
30519;SDS011;17300;50.374;8.006;2023-12-29T09:07:32;1.47;;;0.63;;
30519;SDS011;17300;50.374;8.006;2023-12-29T09:09:58;0.77;;;0.43;;
30519;SDS011;17300;50.374;8.006;2023-12-29T09:12:27;0.37;;;0.30;;
30519;SDS011;17300;50.374;8.006;2023-12-29T09:14:55;0.43;;;0.40;;
30519;SDS011;17300;50.374;8.006;2023-12-29T09:17:21;1.37;;;0.70;;
30519;SDS011;17300;50.374;8.006;2023-12-29T09:19:48;0.60;;;0.33;;
30519;SDS011;17300;50.374;8.006;2023-12-29T09:22:15;1.23;;;0.33;;
30519;SDS011;17300;50.374;8.006;2023-12-29T09:24:41;1.03;;;0.30;;
30519;SDS011;17300;50.374;8.006;2023-12-29T09:27:08;2.10;;;0.57;;
30519;SDS011;17300;50.374;8.006;2023-12-29T09:29:36;1.37;;;0.47;;
30519;SDS011;17300;50.374;8.006;2023-12-29T09:32:04;0.40;;;0.40;;
30519;SDS011;17300;50.374;8.006;2023-12-29T09:34:31;0.60;;;0.40;;
30519;SDS011;17300;50.374;8.006;2023-12-29T09:36:58;1.13;;;0.50;;
30519;SDS011;17300;50.374;8.006;2023-12-29T09:39:25;1.27;;;0.50;;
30519;SDS011;17300;50.374;8.006;2023-12-29T09:41:53;1.10;;;0.40;;
30519;SDS011;17300;50.374;8.006;2023-12-29T09:44:25;1.37;;;0.63;;
30519;SDS011;17300;50.374;8.006;2023-12-29T09:46:54;0.40;;;0.40;;
30519;SDS011;17300;50.374;8.006;2023-12-29T09:49:24;0.70;;;0.50;;
30519;SDS011;17300;50.374;8.006;2023-12-29T09:51:53;0.83;;;0.40;;
30519;SDS011;17300;50.374;8.006;2023-12-29T09:54:21;1.30;;;0.60;;
30519;SDS011;17300;50.374;8.006;2023-12-29T09:56:49;0.87;;;0.67;;
30519;SDS011;17300;50.374;8.006;2023-12-29T09:59:15;1.23;;;0.60;;
30519;SDS011;17300;50.374;8.006;2023-12-29T10:01:43;1.37;;;0.60;;
30519;SDS011;17300;50.374;8.006;2023-12-29T10:04:12;0.90;;;0.40;;
30519;SDS011;17300;50.374;8.006;2023-12-29T10:06:41;0.83;;;0.53;;
30519;SDS011;17300;50.374;8.006;2023-12-29T10:09:13;1.23;;;0.57;;
30519;SDS011;17300;50.374;8.006;2023-12-29T10:11:43;0.40;;;0.40;;
30519;SDS011;17300;50.374;8.006;2023-12-29T10:14:16;0.50;;;0.50;;
30519;SDS011;17300;50.374;8.006;2023-12-29T10:16:49;0.40;;;0.40;;
30519;SDS011;17300;50.374;8.006;2023-12-29T10:19:23;0.50;;;0.43;;
30519;SDS011;17300;50.374;8.006;2023-12-29T10:21:59;1.10;;;0.40;;
30519;SDS011;17300;50.374;8.006;2023-12-29T10:24:32;1.30;;;0.50;;
30519;SDS011;17300;50.374;8.006;2023-12-29T10:26:59;1.37;;;0.60;;
30519;SDS011;17300;50.374;8.006;2023-12-29T10:29:26;1.13;;;0.50;;
30519;SDS011;17300;50.374;8.006;2023-12-29T10:31:53;0.60;;;0.47;;
30519;SDS011;17300;50.374;8.006;2023-12-29T10:34:20;0.80;;;0.40;;
30519;SDS011;17300;50.374;8.006;2023-12-29T10:36:53;1.13;;;0.37;;
30519;SDS011;17300;50.374;8.006;2023-12-29T10:39:21;0.30;;;0.30;;
30519;SDS011;17300;50.374;8.006;2023-12-29T10:41:48;0.40;;;0.40;;
30519;SDS011;17300;50.374;8.006;2023-12-29T10:44:15;0.50;;;0.40;;
30519;SDS011;17300;50.374;8.006;2023-12-29T10:46:42;0.47;;;0.33;;
30519;SDS011;17300;50.374;8.006;2023-12-29T10:49:09;0.57;;;0.40;;
30519;SDS011;17300;50.374;8.006;2023-12-29T10:51:36;0.80;;;0.40;;
30519;SDS011;17300;50.374;8.006;2023-12-29T10:54:04;0.63;;;0.50;;
30519;SDS011;17300;50.374;8.006;2023-12-29T10:56:32;0.90;;;0.60;;
30519;SDS011;17300;50.374;8.006;2023-12-29T10:58:59;0.63;;;0.50;;
30519;SDS011;17300;50.374;8.006;2023-12-29T11:01:28;0.63;;;0.40;;
30519;SDS011;17300;50.374;8.006;2023-12-29T11:03:59;0.60;;;0.40;;
30519;SDS011;17300;50.374;8.006;2023-12-29T11:06:27;0.77;;;0.50;;
30519;SDS011;17300;50.374;8.006;2023-12-29T11:08:55;0.87;;;0.50;;
30519;SDS011;17300;50.374;8.006;2023-12-29T11:11:22;0.80;;;0.30;;
30519;SDS011;17300;50.374;8.006;2023-12-29T11:13:52;0.53;;;0.50;;
30519;SDS011;17300;50.374;8.006;2023-12-29T11:16:21;1.23;;;0.40;;
30519;SDS011;17300;50.374;8.006;2023-12-29T11:18:49;0.50;;;0.30;;
30519;SDS011;17300;50.374;8.006;2023-12-29T11:21:19;0.30;;;0.30;;
30519;SDS011;17300;50.374;8.006;2023-12-29T11:23:48;0.60;;;0.40;;
30519;SDS011;17300;50.374;8.006;2023-12-29T11:26:15;0.50;;;0.50;;
30519;SDS011;17300;50.374;8.006;2023-12-29T11:28:43;0.80;;;0.37;;
30519;SDS011;17300;50.374;8.006;2023-12-29T11:31:13;0.53;;;0.30;;
30519;SDS011;17300;50.374;8.006;2023-12-29T11:33:42;0.87;;;0.60;;
30519;SDS011;17300;50.374;8.006;2023-12-29T11:36:13;0.67;;;0.30;;
30519;SDS011;17300;50.374;8.006;2023-12-29T11:38:45;0.43;;;0.30;;
30519;SDS011;17300;50.374;8.006;2023-12-29T11:41:19;0.40;;;0.30;;
30519;SDS011;17300;50.374;8.006;2023-12-29T11:43:57;0.40;;;0.30;;
30519;SDS011;17300;50.374;8.006;2023-12-29T11:46:38;0.40;;;0.40;;
30519;SDS011;17300;50.374;8.006;2023-12-29T11:49:08;0.83;;;0.40;;
30519;SDS011;17300;50.374;8.006;2023-12-29T11:51:35;0.50;;;0.40;;
30519;SDS011;17300;50.374;8.006;2023-12-29T11:54:21;0.40;;;0.40;;
30519;SDS011;17300;50.374;8.006;2023-12-29T12:00:02;1.27;;;0.63;;
30519;SDS011;17300;50.374;8.006;2023-12-29T12:05:48;0.63;;;0.50;;
30519;SDS011;17300;50.374;8.006;2023-12-29T12:11:54;0.73;;;0.40;;
30519;SDS011;17300;50.374;8.006;2023-12-29T12:18:17;2.53;;;0.67;;
30519;SDS011;17300;50.374;8.006;2023-12-29T12:20:56;0.30;;;0.20;;
30519;SDS011;17300;50.374;8.006;2023-12-29T12:23:23;0.30;;;0.30;;
30519;SDS011;17300;50.374;8.006;2023-12-29T12:25:55;0.63;;;0.30;;
30519;SDS011;17300;50.374;8.006;2023-12-29T12:28:24;0.20;;;0.20;;
30519;SDS011;17300;50.374;8.006;2023-12-29T12:30:51;0.20;;;0.20;;
30519;SDS011;17300;50.374;8.006;2023-12-29T12:33:19;0.40;;;0.30;;
30519;SDS011;17300;50.374;8.006;2023-12-29T12:35:45;0.20;;;0.20;;
30519;SDS011;17300;50.374;8.006;2023-12-29T12:38:15;0.37;;;0.30;;
30519;SDS011;17300;50.374;8.006;2023-12-29T12:40:46;0.37;;;0.20;;
30519;SDS011;17300;50.374;8.006;2023-12-29T12:43:13;0.43;;;0.30;;
30519;SDS011;17300;50.374;8.006;2023-12-29T12:45:41;0.30;;;0.30;;
30519;SDS011;17300;50.374;8.006;2023-12-29T12:48:09;0.60;;;0.20;;
30519;SDS011;17300;50.374;8.006;2023-12-29T12:50:42;0.30;;;0.30;;
30519;SDS011;17300;50.374;8.006;2023-12-29T12:53:10;0.60;;;0.30;;
30519;SDS011;17300;50.374;8.006;2023-12-29T12:55:41;0.33;;;0.30;;
30519;SDS011;17300;50.374;8.006;2023-12-29T12:58:08;0.40;;;0.30;;
30519;SDS011;17300;50.374;8.006;2023-12-29T13:00:35;0.90;;;0.30;;
30519;SDS011;17300;50.374;8.006;2023-12-29T13:03:03;0.57;;;0.37;;
30519;SDS011;17300;50.374;8.006;2023-12-29T13:05:30;0.30;;;0.30;;
30519;SDS011;17300;50.374;8.006;2023-12-29T13:07:57;0.20;;;0.20;;
30519;SDS011;17300;50.374;8.006;2023-12-29T13:10:24;0.20;;;0.20;;
30519;SDS011;17300;50.374;8.006;2023-12-29T13:12:55;0.50;;;0.30;;
30519;SDS011;17300;50.374;8.006;2023-12-29T13:15:22;0.50;;;0.30;;
30519;SDS011;17300;50.374;8.006;2023-12-29T13:17:50;0.43;;;0.40;;
30519;SDS011;17300;50.374;8.006;2023-12-29T13:20:17;0.23;;;0.23;;
30519;SDS011;17300;50.374;8.006;2023-12-29T13:22:45;0.30;;;0.30;;
30519;SDS011;17300;50.374;8.006;2023-12-29T13:25:15;0.47;;;0.40;;
30519;SDS011;17300;50.374;8.006;2023-12-29T13:27:45;0.27;;;0.27;;
30519;SDS011;17300;50.374;8.006;2023-12-29T13:30:13;0.93;;;0.30;;
30519;SDS011;17300;50.374;8.006;2023-12-29T13:32:41;0.80;;;0.50;;
30519;SDS011;17300;50.374;8.006;2023-12-29T13:35:11;0.20;;;0.20;;
30519;SDS011;17300;50.374;8.006;2023-12-29T13:37:44;0.60;;;0.30;;
30519;SDS011;17300;50.374;8.006;2023-12-29T13:40:16;0.30;;;0.30;;
30519;SDS011;17300;50.374;8.006;2023-12-29T13:42:48;0.20;;;0.20;;
30519;SDS011;17300;50.374;8.006;2023-12-29T13:45:21;0.80;;;0.20;;
30519;SDS011;17300;50.374;8.006;2023-12-29T13:47:48;0.37;;;0.20;;
30519;SDS011;17300;50.374;8.006;2023-12-29T13:50:15;0.80;;;0.37;;
30519;SDS011;17300;50.374;8.006;2023-12-29T13:52:42;0.83;;;0.40;;
30519;SDS011;17300;50.374;8.006;2023-12-29T13:55:09;0.40;;;0.30;;
30519;SDS011;17300;50.374;8.006;2023-12-29T13:57:42;0.43;;;0.30;;
30519;SDS011;17300;50.374;8.006;2023-12-29T14:00:15;0.30;;;0.30;;
30519;SDS011;17300;50.374;8.006;2023-12-29T14:02:45;0.30;;;0.20;;
30519;SDS011;17300;50.374;8.006;2023-12-29T14:05:18;0.83;;;0.33;;
30519;SDS011;17300;50.374;8.006;2023-12-29T14:07:46;0.20;;;0.20;;
30519;SDS011;17300;50.374;8.006;2023-12-29T14:10:18;0.40;;;0.30;;
30519;SDS011;17300;50.374;8.006;2023-12-29T14:12:45;0.20;;;0.20;;
30519;SDS011;17300;50.374;8.006;2023-12-29T14:15:12;0.20;;;0.20;;
30519;SDS011;17300;50.374;8.006;2023-12-29T14:17:39;0.30;;;0.23;;
30519;SDS011;17300;50.374;8.006;2023-12-29T14:20:08;0.40;;;0.40;;
30519;SDS011;17300;50.374;8.006;2023-12-29T14:22:35;0.67;;;0.30;;
30519;SDS011;17300;50.374;8.006;2023-12-29T14:25:04;0.30;;;0.30;;
30519;SDS011;17300;50.374;8.006;2023-12-29T14:27:32;0.50;;;0.27;;
30519;SDS011;17300;50.374;8.006;2023-12-29T14:29:59;0.60;;;0.30;;
30519;SDS011;17300;50.374;8.006;2023-12-29T14:32:26;0.20;;;0.20;;
30519;SDS011;17300;50.374;8.006;2023-12-29T14:34:54;0.43;;;0.20;;
30519;SDS011;17300;50.374;8.006;2023-12-29T14:37:22;0.40;;;0.30;;
30519;SDS011;17300;50.374;8.006;2023-12-29T14:39:53;0.40;;;0.30;;
30519;SDS011;17300;50.374;8.006;2023-12-29T14:42:29;0.20;;;0.20;;
30519;SDS011;17300;50.374;8.006;2023-12-29T14:44:56;1.13;;;0.20;;
30519;SDS011;17300;50.374;8.006;2023-12-29T14:47:22;0.53;;;0.20;;
30519;SDS011;17300;50.374;8.006;2023-12-29T14:49:49;0.27;;;0.27;;
30519;SDS011;17300;50.374;8.006;2023-12-29T14:52:16;0.30;;;0.30;;
30519;SDS011;17300;50.374;8.006;2023-12-29T14:54:44;0.43;;;0.30;;
30519;SDS011;17300;50.374;8.006;2023-12-29T14:57:11;0.30;;;0.30;;
30519;SDS011;17300;50.374;8.006;2023-12-29T14:59:38;0.30;;;0.30;;
30519;SDS011;17300;50.374;8.006;2023-12-29T15:02:05;0.73;;;0.30;;
30519;SDS011;17300;50.374;8.006;2023-12-29T15:04:33;0.20;;;0.20;;
30519;SDS011;17300;50.374;8.006;2023-12-29T15:07:00;0.50;;;0.40;;
30519;SDS011;17300;50.374;8.006;2023-12-29T15:09:26;0.80;;;0.40;;